Time;durP1;ratioP1;P1;durP2;ratioP2;P2;SDS_P1;SDS_P2;PMS_P1;PMS_P2;Temp;Humidity;BMP_temperature;BMP_pressure;BME280_temperature;BME280_humidity;BME280_pressure;Samples;Min_cycle;Max_cycle;Signal;HPM_P1;HPM_P2
2023/03/21 00:01:36;;;;;;;;;;;;;;;-144.99;100.00;52454.22;5025421;28;20279;-70
2023/03/21 00:04:04;;;;;;;;;;;;;;;-144.99;100.00;52444.03;5017018;28;20284;-73
2023/03/21 00:06:31;;;;;;;;;;;;;;;-144.99;100.00;52448.09;5020676;28;20016;-70
2023/03/21 00:08:57;;;;;;;;;;;;;;;-144.99;100.00;52407.31;4675843;28;10000410;-72
2023/03/21 00:11:24;;;;;;;;;;;;;;;-144.99;100.00;52425.66;5020507;28;20406;-71
2023/03/21 00:13:52;;;;;;;;;;;;;;;-144.99;100.00;52413.44;5022217;28;19940;-70
2023/03/21 00:16:18;;;;;;;;;;;;;;;-144.99;100.00;52435.88;5018421;28;19933;-72
2023/03/21 00:18:47;;;;;;;;;;;;;;;-144.99;100.00;52429.75;5023843;28;19956;-72
2023/03/21 00:21:16;;;;;;;;;;;;;;;-144.99;100.00;52484.78;5026756;28;20091;-69
2023/03/21 00:23:43;;;;;;;;;;;;;;;-144.99;100.00;52450.13;5026297;28;19929;-69
2023/03/21 00:26:09;;;;;;;;;;;;;;;-144.99;100.00;52464.41;5018677;28;20095;-69
2023/03/21 00:28:36;;;;;;;;;;;;;;;-144.99;100.00;52423.63;5022436;28;20004;-69
2023/03/21 00:31:03;;;;;;;;;;;;;;;-144.99;100.00;52435.88;5019334;28;19952;-71
2023/03/21 00:33:30;;;;;;;;;;;;;;;-144.99;100.00;52458.28;5020918;28;19937;-71
2023/03/21 00:35:57;;;;;;;;;;;;;;;-144.99;100.00;52450.13;5028141;28;19932;-71
2023/03/21 00:38:25;;;;;;;;;;;;;;;-144.99;100.00;52435.88;5019444;28;20013;-75
2023/03/21 00:40:51;;;;;;;;;;;;;;;-144.99;100.00;52403.25;5025952;28;19960;-77
2023/03/21 00:43:22;;;;;;;;;;;;;;;-144.99;100.00;52433.81;5028034;28;20409;-76
2023/03/21 00:45:48;;;;;;;;;;;;;;;-144.99;100.00;52444.03;5025347;28;20016;-72
2023/03/21 00:48:15;;;;;;;;;;;;;;;-144.99;100.00;52423.63;5019791;28;20355;-72
2023/03/21 00:50:44;;;;;;;;;;;;;;;-144.99;100.00;52460.31;5025186;28;19929;-65
2023/03/21 00:53:11;;;;;;;;;;;;;;;-144.99;100.00;52417.53;5023988;28;19929;-65
2023/03/21 00:55:39;;;;;;;;;;;;;;;-144.99;100.00;52452.16;5024413;28;20015;-65
2023/03/21 00:58:05;;;;;;;;;;;;;;;-144.99;100.00;52415.47;5027112;28;20030;-65
2023/03/21 01:00:32;;;;;;;;;;;;;;;-144.99;100.00;52488.84;5026439;28;19956;-65
2023/03/21 01:03:04;;;;;;;;;;;;;;;-144.99;100.00;52419.56;5027577;28;20016;-65
2023/03/21 01:08:17;;;;;;;;;;;;;;;-144.99;100.00;52419.56;5029395;28;19940;-66
2023/03/21 01:10:46;;;;;;;;;;;;;;;-144.99;100.00;52474.59;5031092;28;19925;-66
2023/03/21 01:13:13;;;;;;;;;;;;;;;-144.99;100.00;52468.47;5031607;28;19925;-65
2023/03/21 01:15:43;;;;;;;;;;;;;;;-144.99;100.00;52468.47;5031159;28;19928;-65
2023/03/21 01:18:09;;;;;;;;;;;;;;;-144.99;100.00;52435.88;5031371;28;19987;-65
2023/03/21 01:20:36;;;;;;;;;;;;;;;-144.99;100.00;52415.47;5031260;28;19948;-67
2023/03/21 01:23:03;;;;;;;;;;;;;;;-144.99;100.00;52448.09;5030960;28;19925;-67
2023/03/21 01:25:29;;;;;;;;;;;;;;;-144.99;100.00;52419.56;5027349;28;19925;-67
2023/03/21 01:27:57;;;;;;;;;;;;;;;-144.99;100.00;52431.78;5028085;28;19937;-73
2023/03/21 01:30:24;;;;;;;;;;;;;;;-144.99;100.00;52407.31;5030872;28;19932;-73
2023/03/21 01:32:51;;;;;;;;;;;;;;;-144.99;100.00;52456.25;5028648;28;19932;-72
2023/03/21 01:35:17;;;;;;;;;;;;;;;-144.99;100.00;52427.72;5028952;28;19983;-72
2023/03/21 01:37:44;;;;;;;;;;;;;;;-144.99;100.00;52444.03;5030001;28;19998;-71
2023/03/21 01:40:14;;;;;;;;;;;;;;;-144.99;100.00;52497.00;5030406;28;19929;-71
2023/03/21 01:42:41;;;;;;;;;;;;;;;-144.99;100.00;52452.16;5028001;28;19943;-67
2023/03/21 01:45:22;;;;;;;;;;;;;;;-144.99;100.00;52435.88;5030185;28;19929;-64
2023/03/21 01:47:50;;;;;;;;;;;;;;;-144.99;100.00;52441.97;5028730;28;19944;-64
2023/03/21 01:50:17;;;;;;;;;;;;;;;-144.99;100.00;52468.47;5023809;28;19964;-63
2023/03/21 01:52:45;;;;;;;;;;;;;;;-144.99;100.00;52431.78;5026839;28;19946;-63
2023/03/21 01:55:14;;;;;;;;;;;;;;;-144.99;100.00;52419.56;5030043;28;20407;-62
2023/03/21 01:57:43;;;;;;;;;;;;;;;-144.99;100.00;52456.25;5019047;28;19930;-62
2023/03/21 02:00:12;;;;;;;;;;;;;;;-144.99;100.00;52391.03;5025257;28;20054;-62
2023/03/21 02:02:49;;;;;;;;;;;;;;;-144.99;100.00;52439.94;5029865;28;20456;-63
2023/03/21 02:05:18;;;;;;;;;;;;;;;-144.99;100.00;52415.47;5028053;28;19971;-68
2023/03/21 02:07:44;;;;;;;;;;;;;;;-144.99;100.00;52448.09;5029792;28;19929;-68
2023/03/21 02:10:12;;;;;;;;;;;;;;;-144.99;100.00;52484.78;5029798;28;20123;-69
2023/03/21 02:12:41;;;;;;;;;;;;;;;-144.99;100.00;52431.78;5023676;28;20456;-69
2023/03/21 02:15:08;;;;;;;;;;;;;;;-144.99;100.00;52488.84;5030340;28;19961;-69
2023/03/21 02:17:39;;;;;;;;;;;;;;;-144.99;100.00;52435.88;5029652;28;19940;-71
2023/03/21 02:20:20;;;;;;;;;;;;;;;-144.99;100.00;52386.94;5029990;28;20062;-70
2023/03/21 02:23:11;;;;;;;;;;;;;;;-144.99;100.00;52431.78;5029969;28;19929;-71
2023/03/21 02:25:53;;;;;;;;;;;;;;;-144.99;100.00;52452.16;5025408;28;20128;-70
2023/03/21 02:28:22;;;;;;;;;;;;;;;-144.99;100.00;52478.66;5027159;28;20338;-72
2023/03/21 02:31:06;;;;;;;;;;;;;;;-144.99;100.00;52425.66;5029910;28;19943;-71
2023/03/21 02:33:47;;;;;;;;;;;;;;;-144.99;100.00;52444.03;5029319;28;20041;-71
2023/03/21 02:36:18;;;;;;;;;;;;;;;-144.99;100.00;52452.16;5023514;28;19960;-71
2023/03/21 02:38:51;;;;;;;;;;;;;;;-144.99;100.00;52431.78;5028930;28;20438;-70
2023/03/21 02:41:18;;;;;;;;;;;;;;;-144.99;100.00;52435.88;5023770;28;19971;-70
2023/03/21 02:43:48;;;;;;;;;;;;;;;-144.99;100.00;52435.88;5029674;28;20000;-70
2023/03/21 02:46:16;;;;;;;;;;;;;;;-144.99;100.00;52444.03;5024085;28;20072;-71
2023/03/21 02:48:46;;;;;;;;;;;;;;;-144.99;100.00;52419.56;5028911;28;19949;-71
2023/03/21 02:51:15;;;;;;;;;;;;;;;-144.99;100.00;52407.31;5029510;28;19980;-70
2023/03/21 02:53:43;;;;;;;;;;;;;;;-144.99;100.00;52448.09;5029284;28;19940;-70
2023/03/21 02:56:11;;;;;;;;;;;;;;;-144.99;100.00;52484.78;5026566;28;20062;-68
2023/03/21 02:58:39;;;;;;;;;;;;;;;-144.99;100.00;52435.88;5022369;28;19925;-77
2023/03/21 03:01:07;;;;;;;;;;;;;;;-144.99;100.00;52399.19;5026708;28;19956;-78
2023/03/21 03:03:35;;;;;;;;;;;;;;;-144.99;100.00;52439.94;5030794;28;20031;-71
2023/03/21 03:06:05;;;;;;;;;;;;;;;-144.99;100.00;52441.97;5018780;28;20011;-70
2023/03/21 03:08:37;;;;;;;;;;;;;;;-144.99;100.00;52427.72;5024316;28;19970;-70
2023/03/21 03:11:11;;;;;;;;;;;;;;;-144.99;100.00;52448.09;5027746;28;19963;-70
2023/03/21 03:13:49;;;;;;;;;;;;;;;-144.99;100.00;52415.47;5029087;28;19943;-69
2023/03/21 03:16:20;;;;;;;;;;;;;;;-144.99;100.00;52452.16;5030030;28;19995;-69
2023/03/21 03:18:50;;;;;;;;;;;;;;;-144.99;100.00;52437.91;5028217;28;19978;-69
2023/03/21 03:21:19;;;;;;;;;;;;;;;-144.99;100.00;52407.31;5023642;28;20009;-68
2023/03/21 03:23:48;;;;;;;;;;;;;;;-144.99;100.00;52431.78;5028861;28;19960;-69
2023/03/21 03:26:17;;;;;;;;;;;;;;;-144.99;100.00;52419.56;5028983;28;19967;-68
2023/03/21 03:28:49;;;;;;;;;;;;;;;-144.99;100.00;52407.31;5025340;28;19969;-68
2023/03/21 03:31:20;;;;;;;;;;;;;;;-144.99;100.00;52411.41;5029495;28;19963;-68
2023/03/21 03:33:50;;;;;;;;;;;;;;;-144.99;100.00;52460.31;5023965;28;20444;-69
2023/03/21 03:36:18;;;;;;;;;;;;;;;-144.99;100.00;52431.78;5029242;28;19935;-73
2023/03/21 03:38:46;;;;;;;;;;;;;;;-144.99;100.00;52446.06;5018330;28;20014;-73
2023/03/21 03:41:17;;;;;;;;;;;;;;;-144.99;100.00;52413.44;5028919;28;19941;-75
2023/03/21 03:43:47;;;;;;;;;;;;;;;-144.99;100.00;52431.78;5028622;28;19936;-75
2023/03/21 03:46:17;;;;;;;;;;;;;;;-144.99;100.00;52419.56;5023331;28;20356;-74
2023/03/21 03:48:47;;;;;;;;;;;;;;;-144.99;100.00;52466.44;5023440;28;20340;-74
2023/03/21 03:51:16;;;;;;;;;;;;;;;-144.99;100.00;52448.09;5028749;28;20327;-74
2023/03/21 03:53:46;;;;;;;;;;;;;;;-144.99;100.00;52419.56;5028204;28;19936;-74
2023/03/21 03:56:13;;;;;;;;;;;;;;;-144.99;100.00;52423.63;5028504;28;19967;-68
2023/03/21 03:58:41;;;;;;;;;;;;;;;-144.99;100.00;52395.09;5027971;28;20486;-68
2023/03/21 04:01:09;;;;;;;;;;;;;;;-144.99;100.00;52441.97;5028915;28;20378;-68
2023/03/21 04:03:37;;;;;;;;;;;;;;;-144.99;100.00;52427.72;5026389;28;20442;-68
2023/03/21 04:06:09;;;;;;;;;;;;;;;-144.99;100.00;52431.78;5028175;28;20009;-69
2023/03/21 04:08:37;;;;;;;;;;;;;;;-144.99;100.00;52437.91;5016287;28;20421;-69
2023/03/21 04:11:04;;;;;;;;;;;;;;;-144.99;100.00;52423.63;5028210;28;19965;-69
2023/03/21 04:13:30;;;;;;;;;;;;;;;-144.99;100.00;52454.22;5018787;28;19936;-69
2023/03/21 04:15:57;;;;;;;;;;;;;;;-144.99;100.00;52431.78;5027980;28;20430;-69
2023/03/21 04:18:25;;;;;;;;;;;;;;;-144.99;100.00;52468.47;5020425;28;19936;-68
2023/03/21 04:20:52;;;;;;;;;;;;;;;-144.99;100.00;52464.41;5026749;28;20105;-68
2023/03/21 04:23:19;;;;;;;;;;;;;;;-144.99;100.00;52431.78;5027609;28;19950;-68
2023/03/21 04:25:46;;;;;;;;;;;;;;;-144.99;100.00;52444.03;5027584;28;19995;-68
2023/03/21 04:28:12;;;;;;;;;;;;;;;-144.99;100.00;52435.88;5024766;28;19997;-68
2023/03/21 04:30:40;;;;;;;;;;;;;;;-144.99;100.00;52431.78;5027451;28;20440;-68
2023/03/21 04:33:07;;;;;;;;;;;;;;;-144.99;100.00;52413.44;5025375;28;19936;-65
2023/03/21 04:35:35;;;;;;;;;;;;;;;-144.99;100.00;52452.16;5028350;28;20298;-70
2023/03/21 04:38:02;;;;;;;;;;;;;;;-144.99;100.00;52441.97;5024027;28;19925;-71
2023/03/21 04:40:28;;;;;;;;;;;;;;;-144.99;100.00;52468.47;5015098;28;19962;-71
2023/03/21 04:42:55;;;;;;;;;;;;;;;-144.99;100.00;52423.63;5031149;28;19945;-72
2023/03/21 04:45:27;;;;;;;;;;;;;;;-144.99;100.00;52456.25;5027977;28;19967;-72
2023/03/21 04:47:53;;;;;;;;;;;;;;;-144.99;100.00;52399.19;5028814;28;19961;-72
2023/03/21 04:50:20;;;;;;;;;;;;;;;-144.99;100.00;52435.88;5023589;28;20010;-69
2023/03/21 04:52:48;;;;;;;;;;;;;;;-144.99;100.00;52435.88;5019837;28;19933;-70
2023/03/21 04:55:14;;;;;;;;;;;;;;;-144.99;100.00;52419.56;5031070;28;19932;-71
2023/03/21 04:57:41;;;;;;;;;;;;;;;-144.99;100.00;52452.16;5023136;28;19985;-71
2023/03/21 05:00:13;;;;;;;;;;;;;;;-144.99;100.00;52423.63;5031297;28;19987;-68
2023/03/21 05:02:39;;;;;;;;;;;;;;;-144.99;100.00;52439.94;5030893;28;19928;-70
2023/03/21 05:05:14;;;;;;;;;;;;;;;-144.99;100.00;52446.06;5031686;28;19967;-70
2023/03/21 05:07:41;;;;;;;;;;;;;;;-144.99;100.00;52468.47;5032203;28;19929;-70
2023/03/21 05:10:10;;;;;;;;;;;;;;;-144.99;100.00;52452.16;5023290;28;19960;-70
2023/03/21 05:12:37;;;;;;;;;;;;;;;-144.99;100.00;52452.16;5031088;28;19925;-71
2023/03/21 05:15:16;;;;;;;;;;;;;;;-144.99;100.00;52431.78;5031656;28;19957;-62
2023/03/21 05:17:43;;;;;;;;;;;;;;;-144.99;100.00;52439.94;5030101;28;20103;-76
2023/03/21 05:20:10;;;;;;;;;;;;;;;-144.99;100.00;52448.09;5030612;28;19929;-73
2023/03/21 05:22:39;;;;;;;;;;;;;;;-144.99;100.00;52444.03;5030739;28;19967;-72
2023/03/21 05:25:07;;;;;;;;;;;;;;;-144.99;100.00;52437.91;5030432;28;20026;-70
2023/03/21 05:27:35;;;;;;;;;;;;;;;-144.99;100.00;52427.72;5027991;28;19976;-68
2023/03/21 05:30:02;;;;;;;;;;;;;;;-144.99;100.00;52435.88;5013936;28;20145;-67
2023/03/21 05:32:29;;;;;;;;;;;;;;;-144.99;100.00;52460.31;5030738;28;19925;-67
2023/03/21 05:34:56;;;;;;;;;;;;;;;-144.99;100.00;52472.56;5031330;28;20504;-67
2023/03/21 05:37:22;;;;;;;;;;;;;;;-144.99;100.00;52435.88;5031238;28;20290;-67
2023/03/21 05:39:49;;;;;;;;;;;;;;;-144.99;100.00;52435.88;5030732;28;19929;-67
2023/03/21 05:42:17;;;;;;;;;;;;;;;-144.99;100.00;52444.03;5029711;28;20310;-67
2023/03/21 05:44:45;;;;;;;;;;;;;;;-144.99;100.00;52427.72;5028779;28;19929;-67
2023/03/21 05:47:12;;;;;;;;;;;;;;;-144.99;100.00;52456.25;5028811;28;19980;-67
2023/03/21 05:49:38;;;;;;;;;;;;;;;-144.99;100.00;52425.66;5029932;28;19940;-67
2023/03/21 05:52:05;;;;;;;;;;;;;;;-144.99;100.00;52427.72;5031406;28;20378;-68
2023/03/21 05:54:32;;;;;;;;;;;;;;;-144.99;100.00;52482.75;5027983;28;19925;-68
2023/03/21 05:56:58;;;;;;;;;;;;;;;-144.99;100.00;52441.97;5031722;28;20071;-68
2023/03/21 05:59:25;;;;;;;;;;;;;;;-144.99;100.00;52444.03;5030207;28;19942;-68
2023/03/21 06:01:53;;;;;;;;;;;;;;;-144.99;100.00;52448.09;5029734;28;19929;-68
2023/03/21 06:04:19;;;;;;;;;;;;;;;-144.99;100.00;52386.94;5029877;28;20374;-67
2023/03/21 06:06:46;;;;;;;;;;;;;;;-144.99;100.00;52470.50;5023569;28;19983;-67
2023/03/21 06:09:13;;;;;;;;;;;;;;;-144.99;100.00;52446.06;5030754;28;19999;-66
2023/03/21 06:11:40;;;;;;;;;;;;;;;-144.99;100.00;52452.16;5030446;28;19979;-72
2023/03/21 06:14:07;;;;;;;;;;;;;;;-144.99;100.00;52419.56;5030694;28;20374;-70
2023/03/21 06:16:34;;;;;;;;;;;;;;;-144.99;100.00;52415.47;5025125;28;19925;-69
2023/03/21 06:19:01;;;;;;;;;;;;;;;-144.99;100.00;52407.31;5030633;28;20056;-70
2023/03/21 06:21:28;;;;;;;;;;;;;;;-144.99;100.00;52448.09;5026311;28;19925;-70
2023/03/21 06:23:55;;;;;;;;;;;;;;;-144.99;100.00;52413.44;5031035;28;21138;-71
2023/03/21 06:26:22;;;;;;;;;;;;;;;-144.99;100.00;52423.63;5029096;28;20382;-78
2023/03/21 06:28:48;;;;;;;;;;;;;;;-144.99;100.00;52450.13;4680449;28;10000194;-77
2023/03/21 06:31:15;;;;;;;;;;;;;;;-144.99;100.00;52448.09;5020154;28;20437;-77
2023/03/21 06:33:42;;;;;;;;;;;;;;;-144.99;100.00;52460.31;5018857;28;19933;-78
2023/03/21 06:36:10;;;;;;;;;;;;;;;-144.99;100.00;52429.75;5027565;28;20446;-77
2023/03/21 06:38:37;;;;;;;;;;;;;;;-144.99;100.00;52480.72;5015719;28;19957;-79
2023/03/21 06:41:03;;;;;;;;;;;;;;;-144.99;100.00;52452.16;5024476;28;19963;-78
2023/03/21 06:43:30;;;;;;;;;;;;;;;-144.99;100.00;52452.16;5024758;28;20512;-78
2023/03/21 06:45:58;;;;;;;;;;;;;;;-144.99;100.00;52439.94;5021492;28;20321;-79
2023/03/21 06:48:24;;;;;;;;;;;;;;;-144.99;100.00;52435.88;5024640;28;20263;-78
2023/03/21 06:50:51;;;;;;;;;;;;;;;-144.99;100.00;52415.47;5027131;28;19933;-78
2023/03/21 06:53:20;;;;;;;;;;;;;;;-144.99;100.00;52456.25;5023563;28;20018;-78
2023/03/21 06:55:49;;;;;;;;;;;;;;;-144.99;100.00;52439.94;5023701;28;20049;-78
2023/03/21 06:58:16;;;;;;;;;;;;;;;-144.99;100.00;52421.59;5026677;28;20278;-78
2023/03/21 07:00:43;;;;;;;;;;;;;;;-144.99;100.00;52407.31;5020495;28;19933;-78
2023/03/21 07:03:10;;;;;;;;;;;;;;;-144.99;100.00;52448.09;5021058;28;20032;-78
2023/03/21 07:05:37;;;;;;;;;;;;;;;-144.99;100.00;52407.31;5015017;28;20361;-78
2023/03/21 07:08:04;;;;;;;;;;;;;;;-144.99;100.00;52456.25;5025767;28;19933;-79
2023/03/21 07:10:32;;;;;;;;;;;;;;;-144.99;100.00;52464.41;5023309;28;19947;-81
2023/03/21 07:12:59;;;;;;;;;;;;;;;-144.99;100.00;52448.09;5025189;28;20398;-78
2023/03/21 07:15:26;;;;;;;;;;;;;;;-144.99;100.00;52409.38;5026464;28;20392;-78
2023/03/21 07:17:52;;;;;;;;;;;;;;;-144.99;100.00;52435.88;5020560;28;20027;-78
2023/03/21 07:20:19;;;;;;;;;;;;;;;-144.99;100.00;52456.25;5014620;28;19941;-77
2023/03/21 07:22:46;;;;;;;;;;;;;;;-144.99;100.00;52444.03;5026431;28;19931;-78
2023/03/21 07:25:12;;;;;;;;;;;;;;;-144.99;100.00;52386.94;5025710;28;20284;-78
2023/03/21 07:27:41;;;;;;;;;;;;;;;-144.99;100.00;52419.56;5033770;28;20033;-78
2023/03/21 07:30:08;;;;;;;;;;;;;;;-144.99;100.00;52427.72;5023456;28;20374;-78
2023/03/21 07:32:36;;;;;;;;;;;;;;;-144.99;100.00;52435.88;5027865;28;20292;-78
2023/03/21 07:35:03;;;;;;;;;;;;;;;-144.99;100.00;52439.94;5023969;28;19971;-77
2023/03/21 07:37:30;;;;;;;;;;;;;;;-144.99;100.00;52431.78;5027053;28;20037;-79
2023/03/21 07:39:56;;;;;;;;;;;;;;;-144.99;100.00;52433.81;5024555;28;20016;-78
2023/03/21 07:42:23;;;;;;;;;;;;;;;-144.99;100.00;52403.25;5017933;28;19960;-79
2023/03/21 07:44:53;;;;;;;;;;;;;;;-144.99;100.00;52415.47;5020866;28;19929;-78
2023/03/21 07:47:20;;;;;;;;;;;;;;;-144.99;100.00;52431.78;5026702;28;19951;-79
2023/03/21 07:49:46;;;;;;;;;;;;;;;-144.99;100.00;52350.25;5018854;28;19953;-78
2023/03/21 07:52:13;;;;;;;;;;;;;;;-144.99;100.00;52460.31;5009197;28;20046;-78
2023/03/21 07:54:40;;;;;;;;;;;;;;;-144.99;100.00;52444.03;5019035;28;19945;-78
2023/03/21 07:57:06;;;;;;;;;;;;;;;-144.99;100.00;52439.94;5017798;28;19940;-79
2023/03/21 07:59:33;;;;;;;;;;;;;;;-144.99;100.00;52399.19;5020855;28;20308;-78
2023/03/21 08:02:01;;;;;;;;;;;;;;;-144.99;100.00;52439.94;5020236;28;19975;-79
2023/03/21 08:04:27;;;;;;;;;;;;;;;-144.99;100.00;52382.88;5017975;28;20291;-78
2023/03/21 08:06:54;;;;;;;;;;;;;;;-144.99;100.00;52439.94;5025430;28;20353;-78
2023/03/21 08:09:22;;;;;;;;;;;;;;;-144.99;100.00;52503.13;5024996;28;20024;-80
2023/03/21 08:11:49;;;;;;;;;;;;;;;-144.99;100.00;52427.72;5020559;28;19925;-81
2023/03/21 08:14:15;;;;;;;;;;;;;;;-144.99;100.00;52427.72;5028350;28;19992;-81
2023/03/21 08:16:42;;;;;;;;;;;;;;;-144.99;100.00;52419.56;5019221;28;20022;-79
2023/03/21 08:19:10;;;;;;;;;;;;;;;-144.99;100.00;52446.06;5023659;28;19944;-79
2023/03/21 08:21:38;;;;;;;;;;;;;;;-144.99;100.00;52409.38;5024253;28;19936;-80
2023/03/21 08:24:05;;;;;;;;;;;;;;;-144.99;100.00;52423.63;5023878;28;19929;-78
2023/03/21 08:26:33;;;;;;;;;;;;;;;-144.99;100.00;52429.75;5021739;28;20068;-78
2023/03/21 08:28:59;;;;;;;;;;;;;;;-144.99;100.00;52433.81;5025059;28;19940;-78
2023/03/21 08:31:27;;;;;;;;;;;;;;;-144.99;100.00;52427.72;5025657;28;19925;-78
2023/03/21 08:33:54;;;;;;;;;;;;;;;-144.99;100.00;52403.25;5020073;28;20024;-80
2023/03/21 08:36:22;;;;;;;;;;;;;;;-144.99;100.00;52403.25;5026051;28;19936;-77
2023/03/21 08:38:53;;;;;;;;;;;;;;;-144.99;100.00;52399.19;5019212;28;20023;-78
2023/03/21 08:41:20;;;;;;;;;;;;;;;-144.99;100.00;52427.72;5019823;28;19937;-78
2023/03/21 08:43:47;;;;;;;;;;;;;;;-144.99;100.00;52425.66;5024223;28;19929;-78
2023/03/21 08:46:14;;;;;;;;;;;;;;;-144.99;100.00;52437.91;5021912;28;20006;-80
2023/03/21 08:48:41;;;;;;;;;;;;;;;-144.99;100.00;52433.81;5023370;28;19929;-77
2023/03/21 08:51:07;;;;;;;;;;;;;;;-144.99;100.00;52444.03;5021062;28;19930;-78
2023/03/21 08:53:35;;;;;;;;;;;;;;;-144.99;100.00;52388.97;5024151;28;19929;-80
2023/03/21 08:56:02;;;;;;;;;;;;;;;-144.99;100.00;52423.63;5024826;28;19998;-77
2023/03/21 08:58:28;;;;;;;;;;;;;;;-144.99;100.00;52419.56;5024458;28;19933;-78
2023/03/21 09:00:55;;;;;;;;;;;;;;;-144.99;100.00;52403.25;5020590;28;20043;-78
2023/03/21 09:03:21;;;;;;;;;;;;;;;-144.99;100.00;52423.63;5029485;28;20367;-78
2023/03/21 09:05:48;;;;;;;;;;;;;;;-144.99;100.00;52407.31;5016887;28;19929;-77
2023/03/21 09:08:15;;;;;;;;;;;;;;;-144.99;100.00;52419.56;5036920;28;19929;-80
2023/03/21 09:10:43;;;;;;;;;;;;;;;-144.99;100.00;52395.09;5036429;28;19925;-77
2023/03/21 09:13:09;;;;;;;;;;;;;;;-144.99;100.00;52456.25;5024285;28;19968;-79
2023/03/21 09:15:36;;;;;;;;;;;;;;;-144.99;100.00;52476.63;5025443;28;19960;-79
2023/03/21 09:18:12;;;;;;;;;;;;;;;-144.99;100.00;52395.09;5020866;28;19926;-79
2023/03/21 09:20:39;;;;;;;;;;;;;;;-144.99;100.00;52395.09;5022978;28;20257;-79
2023/03/21 09:23:06;;;;;;;;;;;;;;;-144.99;100.00;52417.53;5023994;28;19939;-79
2023/03/21 09:25:33;;;;;;;;;;;;;;;-144.99;100.00;52444.03;5018356;28;19976;-79
2023/03/21 09:28:04;;;;;;;;;;;;;;;-144.99;100.00;52427.72;5019275;28;20008;-78
2023/03/21 09:30:31;;;;;;;;;;;;;;;-144.99;100.00;52382.88;5026752;28;20113;-78
2023/03/21 09:32:59;;;;;;;;;;;;;;;-144.99;100.00;52413.44;5029223;28;19929;-78
2023/03/21 09:35:27;;;;;;;;;;;;;;;-144.99;100.00;52409.38;5044529;28;19925;-80
2023/03/21 09:37:55;;;;;;;;;;;;;;;-144.99;100.00;52427.72;5045614;28;19925;-81
2023/03/21 09:40:27;;;;;;;;;;;;;;;-144.99;100.00;52419.56;5046243;28;20076;-81
2023/03/21 09:43:01;;;;;;;;;;;;;;;-144.99;100.00;52421.59;5046705;28;19930;-79
2023/03/21 09:45:34;;;;;;;;;;;;;;;-144.99;100.00;52384.91;5017458;28;20408;-79
2023/03/21 09:48:01;;;;;;;;;;;;;;;-144.99;100.00;52399.19;5016312;28;19929;-78
2023/03/21 09:50:30;;;;;;;;;;;;;;;-144.99;100.00;52439.94;5022909;28;19937;-78
2023/03/21 09:52:58;;;;;;;;;;;;;;;-144.99;100.00;52417.53;5023825;28;19929;-78
2023/03/21 09:55:29;;;;;;;;;;;;;;;-144.99;100.00;52439.94;5022018;28;19937;-78
2023/03/21 09:58:00;;;;;;;;;;;;;;;-144.99;100.00;52427.72;5023493;28;19937;-82
2023/03/21 10:00:29;;;;;;;;;;;;;;;-144.99;100.00;52425.66;5036225;28;19935;-80
2023/03/21 10:03:00;;;;;;;;;;;;;;;-144.99;100.00;52403.25;5030317;28;19979;-79
2023/03/21 10:05:28;;;;;;;;;;;;;;;-144.99;100.00;52419.56;5028157;28;19991;-78
2023/03/21 10:07:56;;;;;;;;;;;;;;;-144.99;100.00;52419.56;5020534;28;20259;-79
2023/03/21 10:10:26;;;;;;;;;;;;;;;-144.99;100.00;52407.31;5020111;28;20032;-79
2023/03/21 10:12:53;;;;;;;;;;;;;;;-144.99;100.00;52435.88;5018096;28;19936;-80
2023/03/21 10:15:21;;;;;;;;;;;;;;;-144.99;100.00;52376.75;5021747;28;19987;-80
2023/03/21 10:17:51;;;;;;;;;;;;;;;-144.99;100.00;52435.88;5020612;28;20898;-79
2023/03/21 10:20:21;;;;;;;;;;;;;;;-144.99;100.00;52419.56;5024889;28;19991;-81
2023/03/21 10:22:48;;;;;;;;;;;;;;;-144.99;100.00;52403.25;5031204;28;19925;-79
2023/03/21 10:25:17;;;;;;;;;;;;;;;-144.99;100.00;52391.03;5031771;28;19929;-79
2023/03/21 10:27:43;;;;;;;;;;;;;;;-144.99;100.00;52403.25;5017819;28;19936;-79
2023/03/21 10:30:17;;;;;;;;;;;;;;;-144.99;100.00;52425.66;5025673;28;19994;-78
2023/03/21 10:32:44;;;;;;;;;;;;;;;-144.99;100.00;52378.78;5026578;28;19976;-79
2023/03/21 10:35:13;;;;;;;;;;;;;;;-144.99;100.00;52427.72;5028205;28;19943;-81
2023/03/21 10:37:41;;;;;;;;;;;;;;;-144.99;100.00;52407.31;5028432;28;20481;-80
2023/03/21 10:40:15;;;;;;;;;;;;;;;-144.99;100.00;52397.13;5024149;28;19991;-80
2023/03/21 10:42:42;;;;;;;;;;;;;;;-144.99;100.00;52391.03;5030524;28;20028;-80
2023/03/21 10:45:15;;;;;;;;;;;;;;;-144.99;100.00;52417.53;5025111;28;19975;-80
2023/03/21 10:47:42;;;;;;;;;;;;;;;-144.99;100.00;52437.91;5025950;28;19932;-80
2023/03/21 10:50:13;;;;;;;;;;;;;;;-144.99;100.00;52452.16;5018146;28;19930;-80
2023/03/21 10:52:46;;;;;;;;;;;;;;;-144.99;100.00;52419.56;5020398;28;19930;-80
2023/03/21 10:55:18;;;;;;;;;;;;;;;-144.99;100.00;52452.16;5022158;28;20342;-81
2023/03/21 10:57:46;;;;;;;;;;;;;;;-144.99;100.00;52444.03;5027089;28;19929;-80
2023/03/21 11:00:19;;;;;;;;;;;;;;;-144.99;100.00;52362.50;5018100;28;19937;-80
2023/03/21 11:02:48;;;;;;;;;;;;;;;-144.99;100.00;52446.06;5025310;28;19933;-79
2023/03/21 11:05:19;;;;;;;;;;;;;;;-144.99;100.00;52391.03;5025567;28;19929;-79
2023/03/21 11:07:47;;;;;;;;;;;;;;;-144.99;100.00;52409.38;5021998;28;19975;-79
2023/03/21 11:10:16;;;;;;;;;;;;;;;-144.99;100.00;52407.31;5025908;28;19929;-80
2023/03/21 11:12:48;;;;;;;;;;;;;;;-144.99;100.00;52391.03;5027139;28;19965;-79
2023/03/21 11:15:25;;;;;;;;;;;;;;;-144.99;100.00;52403.25;5023580;28;20348;-79
2023/03/21 11:17:51;;;;;;;;;;;;;;;-144.99;100.00;52456.25;5018595;28;20382;-79
2023/03/21 11:20:19;;;;;;;;;;;;;;;-144.99;100.00;52444.03;5031274;28;20301;-80
2023/03/21 11:22:47;;;;;;;;;;;;;;;-144.99;100.00;52421.59;5033006;28;19940;-81
2023/03/21 11:25:20;;;;;;;;;;;;;;;-144.99;100.00;52401.22;5033682;28;19933;-81
2023/03/21 11:27:48;;;;;;;;;;;;;;;-144.99;100.00;52419.56;5040106;28;19928;-79
2023/03/21 11:30:19;;;;;;;;;;;;;;;-144.99;100.00;52382.88;5027672;28;20259;-79
2023/03/21 11:32:50;;;;;;;;;;;;;;;-144.99;100.00;52423.63;5033511;28;20236;-81
2023/03/21 11:35:19;;;;;;;;;;;;;;;-144.99;100.00;52395.09;5027684;28;20008;-79
2023/03/21 11:37:50;;;;;;;;;;;;;;;-144.99;100.00;52448.09;5021539;28;20331;-78
2023/03/21 11:40:22;;;;;;;;;;;;;;;-144.99;100.00;52413.44;5026939;28;19948;-80
2023/03/21 11:42:50;;;;;;;;;;;;;;;-144.99;100.00;52415.47;5026950;28;20283;-78
2023/03/21 11:45:19;;;;;;;;;;;;;;;-144.99;100.00;52419.56;5024263;28;19984;-81
2023/03/21 11:47:46;;;;;;;;;;;;;;;-144.99;100.00;52415.47;5026832;28;19940;-80
2023/03/21 11:50:18;;;;;;;;;;;;;;;-144.99;100.00;52427.72;5031861;28;19925;-80
2023/03/21 11:52:49;;;;;;;;;;;;;;;-144.99;100.00;52444.03;5031722;28;19933;-80
2023/03/21 11:55:22;;;;;;;;;;;;;;;-144.99;100.00;52419.56;5029222;28;19932;-79
2023/03/21 11:57:53;;;;;;;;;;;;;;;-144.99;100.00;52411.41;5024533;28;19925;-80
2023/03/21 12:00:24;;;;;;;;;;;;;;;-144.99;100.00;52423.63;5016181;28;19980;-79
2023/03/21 12:03:06;;;;;;;;;;;;;;;-144.99;100.00;52382.88;5017668;28;19977;-79
2023/03/21 12:05:34;;;;;;;;;;;;;;;-144.99;100.00;52417.53;5024682;28;19940;-80
2023/03/21 12:08:05;;;;;;;;;;;;;;;-144.99;100.00;52409.38;5027885;28;19929;-80
2023/03/21 12:10:36;;;;;;;;;;;;;;;-144.99;100.00;52399.19;5023585;28;19925;-79
2023/03/21 12:13:08;;;;;;;;;;;;;;;-144.99;100.00;52403.25;5025887;28;20296;-80
2023/03/21 12:15:39;;;;;;;;;;;;;;;-144.99;100.00;52409.38;5027068;28;19933;-79
2023/03/21 12:18:09;;;;;;;;;;;;;;;-144.99;100.00;52411.41;5026152;28;19967;-78
2023/03/21 12:20:39;;;;;;;;;;;;;;;-144.99;100.00;52391.03;5021796;28;20052;-80
2023/03/21 12:23:19;;;;;;;;;;;;;;;-144.99;100.00;52391.03;5016236;28;19933;-79
2023/03/21 12:25:49;;;;;;;;;;;;;;;-144.99;100.00;52386.94;5025125;28;20318;-79
2023/03/21 12:28:22;;;;;;;;;;;;;;;-144.99;100.00;52386.94;5024283;28;19925;-80